Open Full Screen Window  High Contrast Mode
Wind Gusting 00 knots
03
October 21, 2014 7:54 PM EDT
Weather Information
Wind Direction
  040 °
Wind Speed
  03 kt (3 mph)
Wind Gust
  00 kt (0 mph)
Altimeter
30.21 in
Visibility
10 SM
Temperature
06° C
43° F
Dewpoint
01° C
34° F
Humidity
71%
1hr Rain Fall
00.00 in.
24hr Rain Fall
00.00 in.
Sky Condition
Clear
VFR

METAR KIKW 212354Z AUTO 04003KT 10SM CLR 06/01 A3021 RMK AO2 T00620010

*Background is not an actual portrayal of the airport.